createdAt,value
2022-08-17T00:04:39.348Z,18.1
2022-08-17T00:14:34.551Z,18.1
2022-08-17T00:24:36.681Z,18
2022-08-17T00:34:39.119Z,17.9
2022-08-17T00:54:43.388Z,17.8
2022-08-17T01:04:45.174Z,17.8
2022-08-17T01:24:49.830Z,17.7
2022-08-17T01:34:51.844Z,17.5
2022-08-17T01:44:53.840Z,17.4
2022-08-17T01:54:56.068Z,17.2
2022-08-17T02:04:57.896Z,17
2022-08-17T02:14:59.916Z,16.8
2022-08-17T02:25:02.667Z,16.7
2022-08-17T02:45:07.311Z,16.4
2022-08-17T03:15:14.240Z,16.2
2022-08-17T03:55:23.030Z,15.9
2022-08-17T04:05:25.259Z,15.9
2022-08-17T04:15:27.138Z,15.9
2022-08-17T04:55:35.662Z,16.4
2022-08-17T05:05:44.601Z,16.2
2022-08-17T05:35:44.027Z,17.4
2022-08-17T06:15:52.478Z,19
2022-08-17T06:35:56.960Z,19.9
2022-08-17T06:45:58.826Z,20.7
2022-08-17T06:56:01.469Z,21.2
2022-08-17T07:06:03.268Z,21.3
2022-08-17T07:16:05.057Z,21.4
2022-08-17T07:26:07.196Z,21.7
2022-08-17T07:36:09.616Z,21.8
2022-08-17T07:46:11.621Z,21.9
2022-08-17T07:56:14.002Z,22.1
2022-08-17T08:06:16.149Z,22.3
2022-08-17T08:16:18.638Z,22.8
2022-08-17T08:26:20.328Z,23.2
2022-08-17T08:36:56.544Z,23.6
2022-08-17T08:46:24.187Z,24
2022-08-17T08:56:26.687Z,24.2
2022-08-17T09:06:32.063Z,24.8
2022-08-17T09:16:30.759Z,25.2
2022-08-17T09:26:33.290Z,25.2
2022-08-17T09:46:38.778Z,25.7
2022-08-17T09:56:43.865Z,25.9
2022-08-17T10:06:42.577Z,25.9
2022-08-17T10:16:44.581Z,26
2022-08-17T10:26:56.250Z,25.8
2022-08-17T10:36:49.643Z,25.8
2022-08-17T10:46:51.709Z,25.5
2022-08-17T10:56:54.032Z,25.4
2022-08-17T11:16:57.779Z,25
2022-08-17T11:26:59.860Z,24.7
2022-08-17T11:37:01.678Z,24.4
2022-08-17T11:57:06.280Z,24.2
2022-08-17T12:07:08.373Z,24.1
2022-08-17T12:17:10.327Z,24.1
2022-08-17T12:37:14.261Z,23.8
2022-08-17T12:57:18.703Z,24.2
2022-08-17T13:17:23.001Z,24.7
2022-08-17T13:27:25.467Z,24.8
2022-08-17T13:27:33.817Z,24.8
2022-08-17T13:37:35.587Z,25.1
2022-08-17T13:47:37.894Z,25.5
2022-08-17T13:57:40.479Z,25.9
2022-08-17T14:07:42.171Z,25.6
2022-08-17T14:27:52.575Z,26
2022-08-17T14:37:47.636Z,25.7
2022-08-17T14:47:50.152Z,25.5
2022-08-17T14:57:51.772Z,25.2
2022-08-17T15:48:03.918Z,24.8
2022-08-17T16:08:07.922Z,24.6
2022-08-17T16:28:11.490Z,24.8
2022-08-17T17:58:39.096Z,23.4
2022-08-17T18:08:34.251Z,23.4
2022-08-17T18:18:35.770Z,23.4
2022-08-17T18:28:37.653Z,23.2
2022-08-17T18:58:43.518Z,22.5
2022-08-17T19:08:45.467Z,22.2
2022-08-17T19:38:51.088Z,21.8
2022-08-17T19:48:53.709Z,21.5
2022-08-17T19:58:56.162Z,21.4
2022-08-17T20:29:03.171Z,20.2
2022-08-17T20:39:05.019Z,19.4
2022-08-17T20:59:09.589Z,20
2022-08-17T21:09:11.385Z,20.2
2022-08-17T21:19:13.616Z,19.9
2022-08-17T21:29:30.545Z,19.8
2022-08-17T21:39:18.127Z,19.4
2022-08-17T21:49:20.316Z,19.3
2022-08-17T21:59:22.559Z,19.5
2022-08-17T22:19:26.910Z,19.2
2022-08-17T22:39:31.342Z,19
2022-08-17T22:49:33.098Z,18.9
2022-08-17T22:59:35.317Z,18.8
2022-08-17T23:09:37.413Z,18.6
2022-08-17T23:19:39.123Z,17.6
2022-08-17T23:29:41.340Z,17.3
2022-08-17T23:39:43.362Z,17.1
2022-08-17T23:49:45.590Z,17
2022-08-17T23:59:47.566Z,17.1
